Weather at Craiova International Airport

Public forecast

Using degrees Celsius for public forecast. Weather courtesy of forecast.io.

Current aviation weather report (METAR) for Craiova International Airport

2024/05/28 04:30 (retrieved 31 minutes ago)

LRCV 280430Z VRB02KT CAVOK 13/12 Q1015

Closest aviation forecast (TAF) to Craiova International Airport

Forecast is more than 6 hours old.

Closest forecast is Kukës International Airport, 204.6 nm (379.0 km) SW.

2024/05/27 18:00 Ammendment (retrieved 11 hours ago)

TAF AMD LAKU 271900Z 2718/2818 CNL